sensor_id;sensor_type;location;lat;lon;timestamp;pressure;altitude;pressure_sealevel;temperature;humidity
69707;BME280;56975;55.726;37.566;2024-03-08T00:00:00;99790.0;;;-4.3;72.2
69707;BME280;56975;55.726;37.566;2024-03-08T00:05:00;99790.0;;;-4.1;72.2
69707;BME280;56975;55.726;37.566;2024-03-08T00:10:08;99780.0;;;-4.5;73.2
69707;BME280;56975;55.726;37.566;2024-03-08T00:15:00;99770.0;;;-4.5;72.9
69707;BME280;56975;55.726;37.566;2024-03-08T00:20:00;99760.0;;;-4.2;71.3
69707;BME280;56975;55.726;37.566;2024-03-08T00:25:07;99760.0;;;-4.6;72.5
69707;BME280;56975;55.726;37.566;2024-03-08T00:30:01;99750.0;;;-4.8;73.6
69707;BME280;56975;55.726;37.566;2024-03-08T00:35:00;99740.0;;;-4.8;73.7
69707;BME280;56975;55.726;37.566;2024-03-08T00:40:08;99740.0;;;-4.9;74.1
69707;BME280;56975;55.726;37.566;2024-03-08T00:45:00;99730.0;;;-4.7;72.8
69707;BME280;56975;55.726;37.566;2024-03-08T00:50:00;99720.0;;;-4.9;73.6
69707;BME280;56975;55.726;37.566;2024-03-08T00:55:08;99710.0;;;-4.7;73.3
69707;BME280;56975;55.726;37.566;2024-03-08T01:00:02;99710.0;;;-4.7;73.3
69707;BME280;56975;55.726;37.566;2024-03-08T01:05:00;99700.0;;;-4.9;74.4
69707;BME280;56975;55.726;37.566;2024-03-08T01:10:08;99690.0;;;-4.4;72.4
69707;BME280;56975;55.726;37.566;2024-03-08T01:15:00;99680.0;;;-4.5;73.0
69707;BME280;56975;55.726;37.566;2024-03-08T01:20:00;99690.0;;;-4.5;72.9
69707;BME280;56975;55.726;37.566;2024-03-08T01:25:08;99690.0;;;-4.6;73.4
69707;BME280;56975;55.726;37.566;2024-03-08T01:30:00;99690.0;;;-4.7;73.4
69707;BME280;56975;55.726;37.566;2024-03-08T01:35:00;99690.0;;;-4.7;73.9
69707;BME280;56975;55.726;37.566;2024-03-08T01:40:08;99690.0;;;-4.3;72.4
69707;BME280;56975;55.726;37.566;2024-03-08T01:45:00;99680.0;;;-4.4;73.1
69707;BME280;56975;55.726;37.566;2024-03-08T01:50:02;99670.0;;;-4.7;74.3
69707;BME280;56975;55.726;37.566;2024-03-08T01:55:07;99670.0;;;-4.4;73.0
69707;BME280;56975;55.726;37.566;2024-03-08T02:00:01;99690.0;;;-4.6;73.3
69707;BME280;56975;55.726;37.566;2024-03-08T02:05:00;99690.0;;;-4.1;71.0
69707;BME280;56975;55.726;37.566;2024-03-08T02:10:08;99680.0;;;-4.5;72.1
69707;BME280;56975;55.726;37.566;2024-03-08T02:15:00;99660.0;;;-5.0;74.5
69707;BME280;56975;55.726;37.566;2024-03-08T02:20:00;99660.0;;;-5.1;75.0
69707;BME280;56975;55.726;37.566;2024-03-08T02:25:08;99660.0;;;-5.1;74.8
69707;BME280;56975;55.726;37.566;2024-03-08T02:30:00;99660.0;;;-4.9;74.8
69707;BME280;56975;55.726;37.566;2024-03-08T02:35:00;99650.0;;;-5.2;75.5
69707;BME280;56975;55.726;37.566;2024-03-08T02:40:08;99650.0;;;-5.3;76.3
69707;BME280;56975;55.726;37.566;2024-03-08T02:45:00;99660.0;;;-5.1;75.9
69707;BME280;56975;55.726;37.566;2024-03-08T02:50:00;99650.0;;;-5.1;75.6
69707;BME280;56975;55.726;37.566;2024-03-08T02:55:08;99640.0;;;-5.1;75.6
69707;BME280;56975;55.726;37.566;2024-03-08T03:00:00;99640.0;;;-5.3;76.2
69707;BME280;56975;55.726;37.566;2024-03-08T03:05:00;99640.0;;;-5.2;75.8
69707;BME280;56975;55.726;37.566;2024-03-08T03:15:08;99620.0;;;-5.3;77.0
69707;BME280;56975;55.726;37.566;2024-03-08T03:20:00;99610.0;;;-5.3;76.2
69707;BME280;56975;55.726;37.566;2024-03-08T03:25:00;99610.0;;;-5.3;76.6
69707;BME280;56975;55.726;37.566;2024-03-08T03:30:08;99610.0;;;-5.4;76.9
69707;BME280;56975;55.726;37.566;2024-03-08T03:40:00;99600.0;;;-5.9;78.9
69707;BME280;56975;55.726;37.566;2024-03-08T03:45:08;99600.0;;;-6.1;79.7
69707;BME280;56975;55.726;37.566;2024-03-08T03:50:00;99590.0;;;-5.5;78.9
69707;BME280;56975;55.726;37.566;2024-03-08T04:00:08;99600.0;;;-5.4;78.9
69707;BME280;56975;55.726;37.566;2024-03-08T04:10:00;99590.0;;;-5.5;79.7
69707;BME280;56975;55.726;37.566;2024-03-08T04:15:08;99590.0;;;-5.5;79.9
69707;BME280;56975;55.726;37.566;2024-03-08T04:20:00;99580.0;;;-5.5;80.5
69707;BME280;56975;55.726;37.566;2024-03-08T04:25:00;99580.0;;;-5.7;81.2
69707;BME280;56975;55.726;37.566;2024-03-08T04:30:08;99570.0;;;-5.7;82.7
69707;BME280;56975;55.726;37.566;2024-03-08T04:40:00;99580.0;;;-5.3;80.4
69707;BME280;56975;55.726;37.566;2024-03-08T04:45:08;99580.0;;;-5.4;80.6
69707;BME280;56975;55.726;37.566;2024-03-08T04:50:00;99580.0;;;-5.6;82.1
69707;BME280;56975;55.726;37.566;2024-03-08T04:55:00;99570.0;;;-5.4;82.3
69707;BME280;56975;55.726;37.566;2024-03-08T05:00:08;99560.0;;;-5.8;84.0
69707;BME280;56975;55.726;37.566;2024-03-08T05:05:00;99560.0;;;-5.4;83.3
69707;BME280;56975;55.726;37.566;2024-03-08T05:10:00;99560.0;;;-5.2;83.5
69707;BME280;56975;55.726;37.566;2024-03-08T05:15:08;99550.0;;;-5.3;84.0
69707;BME280;56975;55.726;37.566;2024-03-08T05:20:00;99550.0;;;-5.4;85.2
69707;BME280;56975;55.726;37.566;2024-03-08T05:25:00;99530.0;;;-5.1;83.9
69707;BME280;56975;55.726;37.566;2024-03-08T05:30:08;99540.0;;;-5.7;86.4
69707;BME280;56975;55.726;37.566;2024-03-08T05:35:00;99540.0;;;-5.4;87.2
69707;BME280;56975;55.726;37.566;2024-03-08T05:40:00;99540.0;;;-5.7;87.1
69707;BME280;56975;55.726;37.566;2024-03-08T05:45:08;99550.0;;;-5.3;87.1
69707;BME280;56975;55.726;37.566;2024-03-08T05:50:00;99540.0;;;-4.8;83.6
69707;BME280;56975;55.726;37.566;2024-03-08T05:55:00;99540.0;;;-5.2;84.3
69707;BME280;56975;55.726;37.566;2024-03-08T06:00:08;99540.0;;;-5.3;85.6
69707;BME280;56975;55.726;37.566;2024-03-08T06:05:00;99550.0;;;-5.2;85.7
69707;BME280;56975;55.726;37.566;2024-03-08T06:15:08;99540.0;;;-4.7;82.7
69707;BME280;56975;55.726;37.566;2024-03-08T06:20:00;99530.0;;;-4.8;83.1
69707;BME280;56975;55.726;37.566;2024-03-08T06:25:00;99530.0;;;-4.8;83.4
69707;BME280;56975;55.726;37.566;2024-03-08T06:30:08;99520.0;;;-4.7;82.7
69707;BME280;56975;55.726;37.566;2024-03-08T06:35:00;99530.0;;;-4.7;83.7
69707;BME280;56975;55.726;37.566;2024-03-08T06:40:01;99520.0;;;-4.1;79.3
69707;BME280;56975;55.726;37.566;2024-03-08T06:45:08;99520.0;;;-4.3;79.9
69707;BME280;56975;55.726;37.566;2024-03-08T06:50:00;99520.0;;;-4.2;79.5
69707;BME280;56975;55.726;37.566;2024-03-08T06:55:00;99520.0;;;-4.1;79.9
69707;BME280;56975;55.726;37.566;2024-03-08T07:00:08;99520.0;;;-4.1;81.3
69707;BME280;56975;55.726;37.566;2024-03-08T07:05:00;99520.0;;;-3.9;80.3
69707;BME280;56975;55.726;37.566;2024-03-08T07:10:00;99520.0;;;-3.9;80.5
69707;BME280;56975;55.726;37.566;2024-03-08T07:20:08;99530.0;;;-3.6;79.0
69707;BME280;56975;55.726;37.566;2024-03-08T07:25:00;99520.0;;;-3.7;78.9
69707;BME280;56975;55.726;37.566;2024-03-08T07:30:00;99520.0;;;-3.6;78.7
69707;BME280;56975;55.726;37.566;2024-03-08T07:35:07;99530.0;;;-3.6;79.1
69707;BME280;56975;55.726;37.566;2024-03-08T07:40:00;99540.0;;;-3.6;78.8
69707;BME280;56975;55.726;37.566;2024-03-08T07:45:00;99530.0;;;-3.4;79.0
69707;BME280;56975;55.726;37.566;2024-03-08T07:50:08;99530.0;;;-3.0;77.0
69707;BME280;56975;55.726;37.566;2024-03-08T07:55:00;99520.0;;;-3.0;76.9
69707;BME280;56975;55.726;37.566;2024-03-08T08:00:00;99510.0;;;-2.6;75.3
69707;BME280;56975;55.726;37.566;2024-03-08T08:05:07;99500.0;;;-2.4;74.6
69707;BME280;56975;55.726;37.566;2024-03-08T08:10:00;99510.0;;;-2.3;74.0
69707;BME280;56975;55.726;37.566;2024-03-08T08:15:00;99500.0;;;-2.2;73.8
69707;BME280;56975;55.726;37.566;2024-03-08T08:20:08;99500.0;;;-2.1;73.8
69707;BME280;56975;55.726;37.566;2024-03-08T08:25:00;99510.0;;;-2.7;76.8
69707;BME280;56975;55.726;37.566;2024-03-08T08:30:00;99510.0;;;-2.3;74.8
69707;BME280;56975;55.726;37.566;2024-03-08T08:35:07;99500.0;;;-1.9;74.4
69707;BME280;56975;55.726;37.566;2024-03-08T08:40:00;99500.0;;;-1.6;72.8
69707;BME280;56975;55.726;37.566;2024-03-08T08:45:00;99500.0;;;-1.8;73.9
69707;BME280;56975;55.726;37.566;2024-03-08T08:50:08;99510.0;;;-1.5;72.9
69707;BME280;56975;55.726;37.566;2024-03-08T08:55:00;99500.0;;;-1.2;72.4
69707;BME280;56975;55.726;37.566;2024-03-08T09:00:00;99500.0;;;-1.0;71.4
69707;BME280;56975;55.726;37.566;2024-03-08T09:05:07;99500.0;;;-1.0;72.1
69707;BME280;56975;55.726;37.566;2024-03-08T09:10:00;99500.0;;;-1.0;72.0
69707;BME280;56975;55.726;37.566;2024-03-08T09:20:08;99480.0;;;-0.7;71.8
69707;BME280;56975;55.726;37.566;2024-03-08T09:25:00;99480.0;;;-0.8;71.7
69707;BME280;56975;55.726;37.566;2024-03-08T09:30:00;99490.0;;;-0.6;71.4
69707;BME280;56975;55.726;37.566;2024-03-08T09:35:07;99480.0;;;-0.4;71.2
69707;BME280;56975;55.726;37.566;2024-03-08T09:40:00;99470.0;;;-0.3;69.9
69707;BME280;56975;55.726;37.566;2024-03-08T09:45:00;99470.0;;;-0.3;70.6
69707;BME280;56975;55.726;37.566;2024-03-08T09:50:07;99480.0;;;-0.4;70.2
69707;BME280;56975;55.726;37.566;2024-03-08T09:55:00;99470.0;;;-0.2;70.2
69707;BME280;56975;55.726;37.566;2024-03-08T10:00:00;99470.0;;;0.4;68.2
69707;BME280;56975;55.726;37.566;2024-03-08T10:05:07;99470.0;;;-0.4;71.5
69707;BME280;56975;55.726;37.566;2024-03-08T10:10:00;99470.0;;;-0.1;70.1
69707;BME280;56975;55.726;37.566;2024-03-08T10:15:01;99480.0;;;0.1;69.9
69707;BME280;56975;55.726;37.566;2024-03-08T10:20:13;99470.0;;;0.1;69.7
69707;BME280;56975;55.726;37.566;2024-03-08T10:30:00;99470.0;;;-0.2;71.0
69707;BME280;56975;55.726;37.566;2024-03-08T10:45:10;99460.0;;;-0.2;72.2
69707;BME280;56975;55.726;37.566;2024-03-08T10:50:07;99460.0;;;-0.2;71.8
69707;BME280;56975;55.726;37.566;2024-03-08T10:55:01;99470.0;;;-0.1;71.2
69707;BME280;56975;55.726;37.566;2024-03-08T11:00:08;99470.0;;;-0.1;71.4
69707;BME280;56975;55.726;37.566;2024-03-08T11:05:02;99460.0;;;-0.5;72.7
69707;BME280;56975;55.726;37.566;2024-03-08T11:10:02;99460.0;;;-0.6;74.4
69707;BME280;56975;55.726;37.566;2024-03-08T11:30:08;99450.0;;;-0.8;75.3
69707;BME280;56975;55.726;37.566;2024-03-08T11:35:00;99460.0;;;0.0;73.6
69707;BME280;56975;55.726;37.566;2024-03-08T11:40:00;99450.0;;;0.4;70.1
69707;BME280;56975;55.726;37.566;2024-03-08T11:50:00;99450.0;;;0.8;69.3
69707;BME280;56975;55.726;37.566;2024-03-08T11:55:00;99440.0;;;1.0;68.1
69707;BME280;56975;55.726;37.566;2024-03-08T12:05:07;99440.0;;;0.4;70.0
69707;BME280;56975;55.726;37.566;2024-03-08T12:10:17;99450.0;;;0.9;68.1
69707;BME280;56975;55.726;37.566;2024-03-08T12:15:00;99450.0;;;0.6;70.0
69707;BME280;56975;55.726;37.566;2024-03-08T12:25:04;99450.0;;;1.2;67.7
69707;BME280;56975;55.726;37.566;2024-03-08T12:35:07;99460.0;;;1.0;68.1
69707;BME280;56975;55.726;37.566;2024-03-08T12:40:00;99460.0;;;1.5;66.0
69707;BME280;56975;55.726;37.566;2024-03-08T12:45:00;99460.0;;;1.5;63.7
69707;BME280;56975;55.726;37.566;2024-03-08T12:50:08;99450.0;;;1.5;63.8
69707;BME280;56975;55.726;37.566;2024-03-08T12:55:00;99450.0;;;1.1;64.8
69707;BME280;56975;55.726;37.566;2024-03-08T13:10:00;99460.0;;;2.5;60.0
69707;BME280;56975;55.726;37.566;2024-03-08T13:15:00;99470.0;;;2.4;59.8
69707;BME280;56975;55.726;37.566;2024-03-08T13:20:08;99470.0;;;2.0;61.6
69707;BME280;56975;55.726;37.566;2024-03-08T13:30:00;99460.0;;;1.7;62.0
69707;BME280;56975;55.726;37.566;2024-03-08T13:35:07;99470.0;;;1.0;64.5
69707;BME280;56975;55.726;37.566;2024-03-08T13:40:00;99460.0;;;1.1;64.8
69707;BME280;56975;55.726;37.566;2024-03-08T13:45:00;99460.0;;;0.9;65.2
69707;BME280;56975;55.726;37.566;2024-03-08T13:50:08;99450.0;;;1.0;64.4
69707;BME280;56975;55.726;37.566;2024-03-08T13:55:00;99450.0;;;0.6;66.5
69707;BME280;56975;55.726;37.566;2024-03-08T14:00:00;99440.0;;;0.8;65.5
69707;BME280;56975;55.726;37.566;2024-03-08T14:05:07;99450.0;;;2.6;60.0
69707;BME280;56975;55.726;37.566;2024-03-08T14:10:00;99460.0;;;3.3;57.6
69707;BME280;56975;55.726;37.566;2024-03-08T14:15:00;99460.0;;;2.5;59.1
69707;BME280;56975;55.726;37.566;2024-03-08T14:20:08;99460.0;;;2.3;60.2
69707;BME280;56975;55.726;37.566;2024-03-08T14:25:00;99470.0;;;2.1;60.7
69707;BME280;56975;55.726;37.566;2024-03-08T14:30:00;99470.0;;;0.9;63.7
69707;BME280;56975;55.726;37.566;2024-03-08T14:40:08;99470.0;;;1.2;64.3
69707;BME280;56975;55.726;37.566;2024-03-08T14:45:00;99480.0;;;0.6;66.8
69707;BME280;56975;55.726;37.566;2024-03-08T14:50:00;99480.0;;;0.9;65.3
69707;BME280;56975;55.726;37.566;2024-03-08T14:55:08;99470.0;;;0.7;66.7
69707;BME280;56975;55.726;37.566;2024-03-08T15:00:00;99470.0;;;0.5;67.9
69707;BME280;56975;55.726;37.566;2024-03-08T15:05:00;99470.0;;;-0.0;69.8
69707;BME280;56975;55.726;37.566;2024-03-08T15:10:07;99470.0;;;0.5;68.9
69707;BME280;56975;55.726;37.566;2024-03-08T15:15:00;99480.0;;;0.1;70.7
69707;BME280;56975;55.726;37.566;2024-03-08T15:20:00;99470.0;;;0.2;70.7
69707;BME280;56975;55.726;37.566;2024-03-08T15:25:08;99480.0;;;0.3;70.1
69707;BME280;56975;55.726;37.566;2024-03-08T15:30:00;99480.0;;;0.4;70.6
69707;BME280;56975;55.726;37.566;2024-03-08T15:35:00;99480.0;;;0.1;71.6
69707;BME280;56975;55.726;37.566;2024-03-08T15:45:08;99490.0;;;0.3;71.2
69707;BME280;56975;55.726;37.566;2024-03-08T15:50:00;99480.0;;;0.1;72.3
69707;BME280;56975;55.726;37.566;2024-03-08T15:55:00;99500.0;;;0.2;71.7
69707;BME280;56975;55.726;37.566;2024-03-08T16:00:08;99490.0;;;0.2;72.3
69707;BME280;56975;55.726;37.566;2024-03-08T16:05:00;99500.0;;;0.2;72.2
69707;BME280;56975;55.726;37.566;2024-03-08T16:10:00;99500.0;;;-0.3;74.0
69707;BME280;56975;55.726;37.566;2024-03-08T16:15:08;99500.0;;;-0.4;74.8
69707;BME280;56975;55.726;37.566;2024-03-08T16:20:00;99500.0;;;0.0;73.2
69707;BME280;56975;55.726;37.566;2024-03-08T16:25:00;99500.0;;;-0.5;74.6
69707;BME280;56975;55.726;37.566;2024-03-08T16:30:08;99500.0;;;-0.6;75.4
69707;BME280;56975;55.726;37.566;2024-03-08T16:35:00;99500.0;;;-0.2;73.8
69707;BME280;56975;55.726;37.566;2024-03-08T16:40:00;99510.0;;;-0.3;74.1
69707;BME280;56975;55.726;37.566;2024-03-08T16:45:08;99510.0;;;-0.3;74.8
69707;BME280;56975;55.726;37.566;2024-03-08T16:50:00;99500.0;;;-0.3;74.8
69707;BME280;56975;55.726;37.566;2024-03-08T16:55:00;99500.0;;;0.0;73.4
69707;BME280;56975;55.726;37.566;2024-03-08T17:00:08;99500.0;;;-0.3;74.3
69707;BME280;56975;55.726;37.566;2024-03-08T17:05:00;99500.0;;;-0.2;74.5
69707;BME280;56975;55.726;37.566;2024-03-08T17:15:08;99520.0;;;-0.3;76.5
69707;BME280;56975;55.726;37.566;2024-03-08T17:20:00;99510.0;;;-0.6;77.9
69707;BME280;56975;55.726;37.566;2024-03-08T17:25:00;99510.0;;;-0.3;77.4
69707;BME280;56975;55.726;37.566;2024-03-08T17:30:08;99510.0;;;-0.4;77.8
69707;BME280;56975;55.726;37.566;2024-03-08T17:35:00;99500.0;;;0.3;73.6
69707;BME280;56975;55.726;37.566;2024-03-08T17:40:00;99500.0;;;-0.4;75.7
69707;BME280;56975;55.726;37.566;2024-03-08T17:45:08;99510.0;;;-0.2;75.2
69707;BME280;56975;55.726;37.566;2024-03-08T17:50:00;99510.0;;;-0.5;77.0
69707;BME280;56975;55.726;37.566;2024-03-08T18:00:08;99500.0;;;-0.6;77.4
69707;BME280;56975;55.726;37.566;2024-03-08T18:10:00;99500.0;;;-0.5;76.8
69707;BME280;56975;55.726;37.566;2024-03-08T18:15:08;99510.0;;;-0.9;79.4
69707;BME280;56975;55.726;37.566;2024-03-08T18:20:00;99500.0;;;-1.1;80.4
69707;BME280;56975;55.726;37.566;2024-03-08T18:25:00;99500.0;;;-0.6;78.9
69707;BME280;56975;55.726;37.566;2024-03-08T18:30:07;99520.0;;;-0.9;80.3
69707;BME280;56975;55.726;37.566;2024-03-08T18:35:00;99520.0;;;-0.9;80.6
69707;BME280;56975;55.726;37.566;2024-03-08T18:40:00;99520.0;;;-1.2;81.9
69707;BME280;56975;55.726;37.566;2024-03-08T18:45:08;99520.0;;;-0.8;80.3
69707;BME280;56975;55.726;37.566;2024-03-08T18:50:01;99520.0;;;-0.9;78.9
69707;BME280;56975;55.726;37.566;2024-03-08T19:00:08;99520.0;;;-1.1;79.3
69707;BME280;56975;55.726;37.566;2024-03-08T19:05:00;99510.0;;;-1.4;80.1
69707;BME280;56975;55.726;37.566;2024-03-08T19:10:00;99520.0;;;-1.5;80.2
69707;BME280;56975;55.726;37.566;2024-03-08T19:15:08;99510.0;;;-1.5;79.7
69707;BME280;56975;55.726;37.566;2024-03-08T19:20:00;99510.0;;;-1.5;79.7
69707;BME280;56975;55.726;37.566;2024-03-08T19:25:00;99510.0;;;-1.1;77.8
69707;BME280;56975;55.726;37.566;2024-03-08T19:30:08;99510.0;;;-0.9;76.3
69707;BME280;56975;55.726;37.566;2024-03-08T19:35:00;99510.0;;;-1.3;77.0
69707;BME280;56975;55.726;37.566;2024-03-08T19:45:08;99510.0;;;-1.6;77.7
69707;BME280;56975;55.726;37.566;2024-03-08T19:50:00;99500.0;;;-1.9;79.4
69707;BME280;56975;55.726;37.566;2024-03-08T19:55:00;99510.0;;;-1.4;77.6
69707;BME280;56975;55.726;37.566;2024-03-08T20:00:09;99510.0;;;-1.8;78.9
69707;BME280;56975;55.726;37.566;2024-03-08T20:05:00;99510.0;;;-1.6;78.6
69707;BME280;56975;55.726;37.566;2024-03-08T20:10:00;99530.0;;;-1.0;75.7
69707;BME280;56975;55.726;37.566;2024-03-08T20:15:08;99520.0;;;-1.0;75.1
69707;BME280;56975;55.726;37.566;2024-03-08T20:20:00;99530.0;;;-1.1;74.9
69707;BME280;56975;55.726;37.566;2024-03-08T20:25:00;99520.0;;;-1.3;74.6
69707;BME280;56975;55.726;37.566;2024-03-08T20:30:08;99520.0;;;-1.6;75.8
69707;BME280;56975;55.726;37.566;2024-03-08T20:35:00;99510.0;;;-1.3;74.2
69707;BME280;56975;55.726;37.566;2024-03-08T20:40:00;99520.0;;;-1.6;75.9
69707;BME280;56975;55.726;37.566;2024-03-08T20:45:08;99520.0;;;-1.5;75.4
69707;BME280;56975;55.726;37.566;2024-03-08T20:50:00;99520.0;;;-1.4;74.7
69707;BME280;56975;55.726;37.566;2024-03-08T20:55:00;99520.0;;;-0.6;71.3
69707;BME280;56975;55.726;37.566;2024-03-08T21:00:08;99510.0;;;-1.3;74.6
69707;BME280;56975;55.726;37.566;2024-03-08T21:05:00;99520.0;;;-1.6;75.4
69707;BME280;56975;55.726;37.566;2024-03-08T21:10:00;99520.0;;;-1.6;75.1
69707;BME280;56975;55.726;37.566;2024-03-08T21:15:08;99520.0;;;-1.6;75.3
69707;BME280;56975;55.726;37.566;2024-03-08T21:20:00;99520.0;;;-1.4;74.1
69707;BME280;56975;55.726;37.566;2024-03-08T21:25:00;99520.0;;;-1.4;74.7
69707;BME280;56975;55.726;37.566;2024-03-08T21:35:08;99510.0;;;-1.8;74.8
69707;BME280;56975;55.726;37.566;2024-03-08T21:40:00;99520.0;;;-1.8;74.8
69707;BME280;56975;55.726;37.566;2024-03-08T21:45:02;99510.0;;;-1.8;74.3
69707;BME280;56975;55.726;37.566;2024-03-08T21:50:08;99520.0;;;-2.0;75.4
69707;BME280;56975;55.726;37.566;2024-03-08T21:55:00;99530.0;;;-1.7;74.2
69707;BME280;56975;55.726;37.566;2024-03-08T22:00:00;99520.0;;;-2.0;74.8
69707;BME280;56975;55.726;37.566;2024-03-08T22:05:07;99530.0;;;-2.1;74.8
69707;BME280;56975;55.726;37.566;2024-03-08T22:10:00;99530.0;;;-1.6;71.5
69707;BME280;56975;55.726;37.566;2024-03-08T22:15:00;99530.0;;;-2.2;73.9
69707;BME280;56975;55.726;37.566;2024-03-08T22:20:08;99530.0;;;-2.4;74.3
69707;BME280;56975;55.726;37.566;2024-03-08T22:25:00;99530.0;;;-2.2;73.2
69707;BME280;56975;55.726;37.566;2024-03-08T22:35:07;99540.0;;;-2.2;72.6
69707;BME280;56975;55.726;37.566;2024-03-08T22:40:00;99540.0;;;-2.2;72.6
69707;BME280;56975;55.726;37.566;2024-03-08T22:45:00;99530.0;;;-2.1;72.6
69707;BME280;56975;55.726;37.566;2024-03-08T22:50:08;99550.0;;;-2.0;72.0
69707;BME280;56975;55.726;37.566;2024-03-08T23:00:00;99550.0;;;-2.4;72.6
69707;BME280;56975;55.726;37.566;2024-03-08T23:05:07;99550.0;;;-2.3;72.2
69707;BME280;56975;55.726;37.566;2024-03-08T23:10:00;99550.0;;;-2.4;72.0
69707;BME280;56975;55.726;37.566;2024-03-08T23:15:00;99550.0;;;-2.3;71.6
69707;BME280;56975;55.726;37.566;2024-03-08T23:20:08;99560.0;;;-2.5;71.4
69707;BME280;56975;55.726;37.566;2024-03-08T23:25:00;99560.0;;;-2.7;71.2
69707;BME280;56975;55.726;37.566;2024-03-08T23:30:00;99560.0;;;-1.7;67.2
69707;BME280;56975;55.726;37.566;2024-03-08T23:35:08;99560.0;;;-2.2;68.1
69707;BME280;56975;55.726;37.566;2024-03-08T23:40:00;99560.0;;;-2.5;68.4
69707;BME280;56975;55.726;37.566;2024-03-08T23:45:00;99570.0;;;-2.0;66.8
69707;BME280;56975;55.726;37.566;2024-03-08T23:50:08;99560.0;;;-2.5;69.1
